My Blog

Gozo Island, Malta

32°C

GozoIslandWeather.com – Nearby METAR Reports

LMML – Luqa, Malta
Updated: 15/08/2015 13:45

Few Clouds

Wind: NW 17 km/h
Temperature: 32°C
Heat Index: 33°C
Dew Point: 18°C
Humidity: 43%
Barometer: 1012 hPa
Clouds: Few Clouds
Visibility: 10 km
Cloud details: Few Clouds 610 m
2015/08/15 11:45 LMML 151145Z 32009KT 290V350 9999 FEW020 32/18 Q1012 NOSIG
LICZ – Catania, Italy
Updated: 15/08/2015 12:55

Few Clouds

Wind: NW 6 km/h
Temperature: 36°C
Dew Point: 16°C
Humidity: 30%
Barometer: 1010 hPa
Clouds: Few Clouds
Visibility: 10 km
Cloud details: Few Clouds 914 m
2015/08/15 10:55 LICZ 151055Z 31003KT 9999 FEW030 36/16 Q1010 RMK SCT SCT200 VIS MIN 9999 WIND THR28 24002KT A2983 BLU
 
LICL – Ragusa, Italy
Updated: 15/08/2015 12:55

Few Clouds

Wind: W 22 km/h
Temperature: 30°C
Heat Index: 34°C
Dew Point: 23°C
Humidity: 66%
Barometer: 1010 hPa
Clouds: Few Clouds
Visibility: 10 km
Cloud details: Few Clouds 671 m
2015/08/15 10:55 LICL 151055Z 27012KT 9999 FEW022 30/23 Q1010 RMK SCT SCT200 QUK 3 QUL 1 SW VIS MAR 12 KM VIS MIN 9999
LICD – Linosa Island, Italy
Updated: 15/08/2015 12:50

Clear

Wind: N 7 km/h
Temperature: 30°C
Heat Index: 31°C
Dew Point: 18°C
Humidity: 49%
Barometer: 1013 hPa
Summary: Clear
Visibility: greater than 10 km
2015/08/15 10:50 LICD 151050Z 36004KT CAVOK 30/18 Q1013
 
LICD – Lampedusa, Italy
Updated: 15/08/2015 12:50

Clear

Wind: N 7 km/h
Temperature: 30°C
Heat Index: 31°C
Dew Point: 18°C
Humidity: 49%
Barometer: 1013 hPa
Summary: Clear
Visibility: greater than 10 km
2015/08/15 10:50 LICD 151050Z 36004KT CAVOK 30/18 Q1013
DTTL – Pantelleria, Italy
Updated: 15/08/2015 13:00

Clear

Wind: SSE 9 km/h
Temperature: 31°C
Heat Index: 35°C
Dew Point: 22°C
Humidity: 59%
Barometer: 1012 hPa
Summary: Clear
Visibility: greater than 10 km
2015/08/15 11:00 DTTL 151100Z 16005KT 120V230 CAVOK 31/22 Q1012
 
LICJ – Palemro, Italy
Updated: 15/08/2015 13:20

Few Clouds

Wind: W 24 km/h
Temperature: 28°C
Heat Index: 31°C
Dew Point: 23°C
Humidity: 74%
Barometer: 1012 hPa
Clouds: Few Clouds
Visibility: 10 km
Cloud details: Few Clouds 762 m
2015/08/15 11:20 LICJ 151120Z 28013KT 9999 FEW025 28/23 Q1012
LIRA – Rome, Italy
Updated: 15/08/2015 13:50

Partly cloudy

Wind: SSW 15 km/h
Temperature: 30°C
Heat Index: 31°C
Dew Point: 19°C
Humidity: 52%
Barometer: 1010 hPa
Clouds: Partly cloudy
Visibility: 10 km
Cloud details: Few Clouds 610 m Partly cloudy 914 m
2015/08/15 11:50 LIRA 151150Z 20008KT 170V260 9999 FEW020CB SCT030 30/19 Q1010
 
DTTA – Tunis, Tunisia
Updated: 15/08/2015 13:30

Partly cloudy

Wind: varies 6 km/h
Temperature: 34°C
Dew Point: 11°C
Humidity: 24%
Barometer: 1011 hPa
Clouds: Partly cloudy
Visibility: 10 km
Cloud details: Partly cloudy 1006 m
2015/08/15 11:30 DTTA 151130Z VRB03KT 9999 SCT033 34/11 Q1011 NOSIG